Maza, Argentina
Current Conditions -  °F | °C
As of 1:00 AM on Friday 31 Oct 2014 (Local Time) from SAOC Reporting Station
Few Clouds Few Clouds  
Wind Chill: 61°   Ceiling: Unl
Heat Index: 61°   Visibility: 6mi
Dew Point: 54°   Wind: 13mph
Humidity: 77%   Direction: 360°N
Pressure: 29.8"   Gusts: NA
Location:  36.83°S, 63.32°W
Report Text: SAOC 310400Z 36011KT 9999 FEW025 FEW040CB16/12 Q1009
Loading
Personal Weather Stations






























Interactive Weather Map New forecast layout! Learn more

10-Day Weather Forecast

Advertisements
Track Severe Weather on mobile